createdAt,value
2022-09-11T00:02:04.516Z,16.60
2022-09-11T00:07:06.236Z,16.60
2022-09-11T00:12:07.953Z,16.60
2022-09-11T00:17:09.644Z,16.60
2022-09-11T00:22:12.079Z,16.70
2022-09-11T00:27:13.734Z,16.70
2022-09-11T00:32:15.629Z,16.60
2022-09-11T00:37:17.287Z,16.70
2022-09-11T00:42:18.922Z,16.70
2022-09-11T00:47:20.649Z,16.80
2022-09-11T00:52:30.973Z,16.80
2022-09-11T00:57:39.177Z,16.80
2022-09-11T01:02:44.789Z,16.90
2022-09-11T01:07:47.536Z,16.80
2022-09-11T01:12:57.151Z,16.80
2022-09-11T01:18:01.550Z,16.90
2022-09-11T01:23:03.148Z,16.90
2022-09-11T01:28:13.548Z,16.90
2022-09-11T01:33:28.618Z,16.90
2022-09-11T01:38:50.486Z,16.90
2022-09-11T01:44:07.000Z,16.90
2022-09-11T01:49:22.752Z,16.90
2022-09-11T01:54:31.768Z,16.90
2022-09-11T01:59:49.569Z,16.90
2022-09-11T02:05:09.140Z,16.90
2022-09-11T02:10:17.150Z,16.90
2022-09-11T02:15:19.282Z,16.80
2022-09-11T02:20:20.987Z,16.90
2022-09-11T02:25:22.634Z,16.90
2022-09-11T02:30:24.341Z,16.90
2022-09-11T02:35:34.108Z,16.80
2022-09-11T02:40:44.032Z,16.90
2022-09-11T02:46:03.931Z,16.90
2022-09-11T02:51:26.045Z,16.80
2022-09-11T02:56:42.462Z,16.90
2022-09-11T03:01:55.391Z,16.80
2022-09-11T03:06:58.654Z,16.80
2022-09-11T03:12:01.085Z,16.90
2022-09-11T03:17:02.745Z,16.80
2022-09-11T03:22:04.553Z,16.90
2022-09-11T03:27:06.888Z,16.90
2022-09-11T03:32:10.092Z,16.90
2022-09-11T03:37:11.756Z,16.80
2022-09-11T03:42:13.645Z,16.90
2022-09-11T03:47:15.389Z,16.90
2022-09-11T03:52:17.154Z,16.80
2022-09-11T03:57:18.954Z,16.80
2022-09-11T04:02:20.708Z,16.90
2022-09-11T04:07:22.447Z,16.90
2022-09-11T04:12:24.232Z,16.80
2022-09-11T04:17:25.882Z,16.80
2022-09-11T04:22:27.570Z,16.90
2022-09-11T04:27:29.285Z,16.80
2022-09-11T04:32:30.975Z,16.80
2022-09-11T04:37:35.288Z,16.70
2022-09-11T04:42:37.256Z,16.70
2022-09-11T04:47:38.857Z,16.60
2022-09-11T04:52:40.531Z,16.50
2022-09-11T04:57:42.221Z,16.60
2022-09-11T05:02:45.154Z,16.50
2022-09-11T05:07:50.269Z,16.50
2022-09-11T05:12:51.857Z,16.50
2022-09-11T05:17:53.504Z,16.40
2022-09-11T05:22:55.221Z,16.40
2022-09-11T05:27:56.937Z,16.40
2022-09-11T05:32:58.741Z,16.40
2022-09-11T05:38:00.485Z,16.40
2022-09-11T05:43:02.599Z,16.40
2022-09-11T05:48:04.308Z,16.40
2022-09-11T05:53:05.950Z,16.30
2022-09-11T05:58:07.865Z,16.40
2022-09-11T06:03:13.625Z,16.40
2022-09-11T06:08:17.085Z,16.50
2022-09-11T06:13:18.772Z,16.50
2022-09-11T06:18:20.643Z,16.50
2022-09-11T06:23:22.608Z,16.50
2022-09-11T06:28:24.384Z,16.50
2022-09-11T06:33:26.206Z,16.60
2022-09-11T06:38:28.319Z,16.50
2022-09-11T06:43:30.795Z,16.50
2022-09-11T06:48:46.801Z,16.50
2022-09-11T06:54:16.800Z,16.50
2022-09-11T06:59:18.521Z,16.40
2022-09-11T07:04:20.232Z,16.50
2022-09-11T07:09:22.123Z,16.50
2022-09-11T07:14:23.845Z,16.70
2022-09-11T07:19:27.563Z,16.60
2022-09-11T07:24:29.204Z,16.50
2022-09-11T07:29:31.520Z,16.60
2022-09-11T07:34:33.234Z,16.70
2022-09-11T07:39:35.095Z,16.70
2022-09-11T07:44:36.960Z,16.80
2022-09-11T07:49:38.620Z,16.80
2022-09-11T07:54:40.305Z,16.80
2022-09-11T07:59:41.993Z,16.90
2022-09-11T08:04:43.909Z,17.00
2022-09-11T08:09:46.418Z,17.10
2022-09-11T08:14:48.321Z,17.10
2022-09-11T08:19:50.048Z,17.20
2022-09-11T08:24:51.760Z,17.20
2022-09-11T08:29:54.049Z,17.20
2022-09-11T08:34:55.720Z,17.30
2022-09-11T08:39:57.391Z,17.20
2022-09-11T08:45:00.536Z,17.20
2022-09-11T08:50:23.561Z,17.20
2022-09-11T08:55:41.379Z,17.30
2022-09-11T09:00:56.440Z,17.30
2022-09-11T09:06:12.960Z,17.40
2022-09-11T09:11:50.042Z,17.30
2022-09-11T09:17:02.241Z,17.30
2022-09-11T09:22:12.905Z,17.30
2022-09-11T09:27:19.563Z,17.40
2022-09-11T09:32:50.819Z,17.50
2022-09-11T09:37:52.757Z,17.50
2022-09-11T09:43:29.783Z,17.50
2022-09-11T09:48:36.159Z,17.70
2022-09-11T09:53:50.864Z,17.90
2022-09-11T09:59:13.549Z,17.90
2022-09-11T10:04:27.012Z,18.00
2022-09-11T10:09:29.733Z,18.00
2022-09-11T10:14:51.502Z,18.10
2022-09-11T10:19:55.604Z,18.10
2022-09-11T10:25:03.409Z,18.20
2022-09-11T10:30:05.793Z,18.10
2022-09-11T10:35:11.103Z,18.20
2022-09-11T10:40:22.532Z,18.10
2022-09-11T10:45:24.488Z,18.20
2022-09-11T10:50:26.845Z,18.30
2022-09-11T10:55:40.112Z,18.40
2022-09-11T11:00:41.873Z,18.50
2022-09-11T11:06:14.289Z,18.60
2022-09-11T11:11:51.520Z,18.80
2022-09-11T11:17:15.457Z,18.90
2022-09-11T11:22:39.686Z,18.90
2022-09-11T11:28:06.617Z,19.10
2022-09-11T11:33:20.180Z,19.10
2022-09-11T11:38:39.413Z,19.20
2022-09-11T11:43:43.472Z,19.20
2022-09-11T11:49:06.136Z,19.40
2022-09-11T11:54:41.860Z,19.40
2022-09-11T11:59:49.653Z,19.50
2022-09-11T12:04:57.052Z,19.50
2022-09-11T12:10:01.545Z,19.60
2022-09-11T12:15:17.405Z,19.80
2022-09-11T12:20:40.690Z,19.90
2022-09-11T12:25:50.036Z,20.00
2022-09-11T12:31:05.118Z,20.20
2022-09-11T12:36:16.100Z,20.20
2022-09-11T12:41:30.068Z,20.30
2022-09-11T12:46:31.721Z,20.40
2022-09-11T12:51:38.785Z,20.60
2022-09-11T12:56:51.146Z,20.70
2022-09-11T13:01:53.688Z,20.80
2022-09-11T13:06:59.116Z,21.00
2022-09-11T13:12:24.942Z,21.10
2022-09-11T13:17:32.502Z,21.20
2022-09-11T13:22:35.201Z,21.20
2022-09-11T13:27:38.982Z,21.30
2022-09-11T13:32:41.952Z,21.40
2022-09-11T13:37:58.228Z,21.50
2022-09-11T13:43:01.802Z,21.50
2022-09-11T13:48:29.576Z,21.30
2022-09-11T13:53:33.302Z,21.30
2022-09-11T13:58:37.911Z,21.30
2022-09-11T14:03:44.854Z,21.40
2022-09-11T14:08:55.101Z,21.30
2022-09-11T14:14:10.209Z,21.40
2022-09-11T14:19:24.561Z,21.50
2022-09-11T14:24:27.719Z,21.70
2022-09-11T14:29:31.469Z,21.80
2022-09-11T14:34:33.141Z,21.80
2022-09-11T14:39:46.095Z,21.80
2022-09-11T14:44:48.161Z,21.90
2022-09-11T14:49:53.293Z,21.90
2022-09-11T14:54:56.494Z,21.90
2022-09-11T14:59:59.480Z,22.00
2022-09-11T15:05:01.100Z,22.00
2022-09-11T15:10:02.797Z,21.90
2022-09-11T15:15:04.970Z,21.90
2022-09-11T15:20:09.021Z,21.80
2022-09-11T15:25:11.191Z,21.70
2022-09-11T15:30:13.002Z,21.80
2022-09-11T15:35:18.382Z,21.70
2022-09-11T15:40:20.846Z,21.70
2022-09-11T15:45:22.576Z,21.70
2022-09-11T15:50:28.267Z,21.60
2022-09-11T15:55:30.217Z,21.60
2022-09-11T16:00:34.476Z,21.50
2022-09-11T16:05:40.048Z,21.40
2022-09-11T16:10:41.947Z,21.40
2022-09-11T16:15:44.004Z,21.40
2022-09-11T16:20:56.448Z,21.30
2022-09-11T16:26:04.164Z,21.30
2022-09-11T16:31:07.607Z,21.20
2022-09-11T16:36:16.933Z,21.20
2022-09-11T16:41:21.384Z,21.20
2022-09-11T16:46:28.614Z,21.20
2022-09-11T16:51:30.460Z,21.10
2022-09-11T16:56:45.842Z,21.10
2022-09-11T17:01:48.506Z,21.00
2022-09-11T17:06:50.231Z,21.00
2022-09-11T17:11:52.008Z,20.90
2022-09-11T17:16:53.753Z,20.90
2022-09-11T17:21:59.065Z,20.80
2022-09-11T17:27:02.273Z,20.70
2022-09-11T17:32:26.816Z,20.60
2022-09-11T17:37:26.477Z,20.60
2022-09-11T17:42:32.236Z,20.50
2022-09-11T17:47:34.535Z,20.40
2022-09-11T17:52:36.861Z,20.30
2022-09-11T17:57:39.697Z,20.20
2022-09-11T18:02:41.365Z,20.00
2022-09-11T18:13:35.026Z,19.80
2022-09-11T18:18:39.369Z,19.60
2022-09-11T18:23:46.278Z,19.50
2022-09-11T18:28:50.503Z,19.40
2022-09-11T18:33:57.272Z,19.30
2022-09-11T18:39:01.978Z,19.10
2022-09-11T18:44:08.365Z,19.00
2022-09-11T18:49:11.644Z,18.90
2022-09-11T18:54:14.947Z,18.80
2022-09-11T18:59:16.679Z,18.60
2022-09-11T19:04:20.128Z,18.50
2022-09-11T19:09:21.927Z,18.40
2022-09-11T19:14:23.946Z,18.20
2022-09-11T19:19:26.135Z,18.20
2022-09-11T19:24:29.953Z,18.10
2022-09-11T19:29:31.922Z,18.00
2022-09-11T19:34:38.642Z,17.90
2022-09-11T19:39:40.845Z,17.80
2022-09-11T19:44:42.537Z,17.70
2022-09-11T19:49:46.919Z,17.60
2022-09-11T19:54:48.572Z,17.50
2022-09-11T19:59:50.221Z,17.40
2022-09-11T20:04:52.158Z,17.30
2022-09-11T20:09:53.772Z,17.30
2022-09-11T20:14:55.417Z,17.10
2022-09-11T20:19:57.327Z,17.10
2022-09-11T20:25:00.533Z,17.10
2022-09-11T20:30:02.436Z,17.00
2022-09-11T20:35:05.393Z,16.80
2022-09-11T20:40:07.863Z,16.70
2022-09-11T20:45:10.039Z,16.60
2022-09-11T20:50:13.241Z,16.60
2022-09-11T20:55:14.916Z,16.50
2022-09-11T21:00:16.692Z,16.40
2022-09-11T21:05:18.336Z,16.30
2022-09-11T21:10:19.992Z,16.20
2022-09-11T21:15:21.717Z,16.20
2022-09-11T21:20:24.317Z,16.10
2022-09-11T21:25:27.909Z,16.00
2022-09-11T21:30:29.521Z,15.90
2022-09-11T21:35:31.380Z,15.90
2022-09-11T21:40:33.072Z,15.90
2022-09-11T21:45:34.756Z,15.90
2022-09-11T21:50:37.784Z,15.90
2022-09-11T21:55:41.318Z,15.80
2022-09-11T22:00:43.814Z,15.80
2022-09-11T22:05:49.049Z,15.70
2022-09-11T22:10:51.633Z,15.80
2022-09-11T22:15:53.279Z,15.70
2022-09-11T22:20:58.209Z,15.60
2022-09-11T22:26:03.925Z,15.60
2022-09-11T22:31:14.817Z,15.50
2022-09-11T22:36:23.498Z,15.40
2022-09-11T22:41:26.809Z,15.30
2022-09-11T22:46:28.545Z,15.20
2022-09-11T22:51:33.928Z,15.20
2022-09-11T22:56:35.593Z,15.10
2022-09-11T23:01:37.569Z,15.10
2022-09-11T23:06:58.002Z,15.10
2022-09-11T23:11:59.623Z,15.10
2022-09-11T23:17:01.224Z,15.20
2022-09-11T23:22:02.896Z,15.20
2022-09-11T23:27:04.643Z,15.10
2022-09-11T23:32:06.880Z,15.10
2022-09-11T23:37:08.516Z,15.10
2022-09-11T23:42:10.179Z,15.10
2022-09-11T23:47:11.815Z,15.10
2022-09-11T23:52:13.836Z,15.00
2022-09-11T23:57:15.481Z,15.00
